sensor_id;sensor_type;location;lat;lon;timestamp;pressure;altitude;pressure_sealevel;temperature;humidity
36598;BME280;22607;49.550;11.940;2023-01-16T00:00:59;95796.41;;;0.84;100.00
36598;BME280;22607;49.550;11.940;2023-01-16T00:03:25;95795.06;;;0.60;100.00
36598;BME280;22607;49.550;11.940;2023-01-16T00:05:52;95788.53;;;0.56;100.00
36598;BME280;22607;49.550;11.940;2023-01-16T00:08:19;95785.69;;;0.59;100.00
36598;BME280;22607;49.550;11.940;2023-01-16T00:10:45;95783.59;;;0.52;100.00
36598;BME280;22607;49.550;11.940;2023-01-16T00:13:12;95779.94;;;0.55;100.00
36598;BME280;22607;49.550;11.940;2023-01-16T00:15:43;95782.53;;;0.65;100.00
36598;BME280;22607;49.550;11.940;2023-01-16T00:18:09;95775.03;;;0.62;100.00
36598;BME280;22607;49.550;11.940;2023-01-16T00:20:36;95773.41;;;0.61;100.00
36598;BME280;22607;49.550;11.940;2023-01-16T00:23:02;95763.22;;;0.59;100.00
36598;BME280;22607;49.550;11.940;2023-01-16T00:25:28;95765.53;;;0.52;100.00
36598;BME280;22607;49.550;11.940;2023-01-16T00:27:55;95763.34;;;0.58;100.00
36598;BME280;22607;49.550;11.940;2023-01-16T00:30:21;95764.84;;;0.50;100.00
36598;BME280;22607;49.550;11.940;2023-01-16T00:32:54;95754.94;;;0.56;100.00
36598;BME280;22607;49.550;11.940;2023-01-16T00:35:21;95754.94;;;0.56;100.00
36598;BME280;22607;49.550;11.940;2023-01-16T00:37:47;95752.88;;;0.59;100.00
36598;BME280;22607;49.550;11.940;2023-01-16T00:40:13;95750.31;;;0.49;100.00
36598;BME280;22607;49.550;11.940;2023-01-16T00:42:40;95745.41;;;0.56;100.00
36598;BME280;22607;49.550;11.940;2023-01-16T00:45:06;95744.31;;;0.59;100.00
36598;BME280;22607;49.550;11.940;2023-01-16T00:47:33;95744.59;;;0.56;100.00
36598;BME280;22607;49.550;11.940;2023-01-16T00:49:59;95746.09;;;0.58;100.00
36598;BME280;22607;49.550;11.940;2023-01-16T00:52:26;95738.19;;;0.60;100.00
36598;BME280;22607;49.550;11.940;2023-01-16T00:54:52;95738.19;;;0.60;100.00
36598;BME280;22607;49.550;11.940;2023-01-16T00:57:19;95734.41;;;0.64;100.00
36598;BME280;22607;49.550;11.940;2023-01-16T00:59:45;95733.28;;;0.57;100.00
36598;BME280;22607;49.550;11.940;2023-01-16T01:02:11;95735.09;;;0.56;100.00
36598;BME280;22607;49.550;11.940;2023-01-16T01:04:38;95732.34;;;0.58;100.00
36598;BME280;22607;49.550;11.940;2023-01-16T01:07:04;95727.72;;;0.61;100.00
36598;BME280;22607;49.550;11.940;2023-01-16T01:09:32;95723.09;;;0.65;100.00
36598;BME280;22607;49.550;11.940;2023-01-16T01:11:58;95717.41;;;0.61;100.00
36598;BME280;22607;49.550;11.940;2023-01-16T01:14:25;95720.91;;;0.60;100.00
36598;BME280;22607;49.550;11.940;2023-01-16T01:16:51;95718.47;;;0.29;100.00
36598;BME280;22607;49.550;11.940;2023-01-16T01:19:18;95721.75;;;0.41;100.00
36598;BME280;22607;49.550;11.940;2023-01-16T01:21:45;95722.16;;;0.46;100.00
36598;BME280;22607;49.550;11.940;2023-01-16T01:24:11;95717.13;;;0.45;100.00
36598;BME280;22607;49.550;11.940;2023-01-16T01:26:37;95708.97;;;0.39;100.00
36598;BME280;22607;49.550;11.940;2023-01-16T01:29:04;95695.88;;;0.51;100.00
36598;BME280;22607;49.550;11.940;2023-01-16T01:31:30;95688.81;;;0.63;100.00
36598;BME280;22607;49.550;11.940;2023-01-16T01:33:57;95690.16;;;0.67;100.00
36598;BME280;22607;49.550;11.940;2023-01-16T01:36:23;95684.47;;;0.54;100.00
36598;BME280;22607;49.550;11.940;2023-01-16T01:38:49;95680.25;;;0.62;100.00
36598;BME280;22607;49.550;11.940;2023-01-16T01:41:16;95670.59;;;0.64;100.00
36598;BME280;22607;49.550;11.940;2023-01-16T01:43:47;95668.00;;;0.74;100.00
36598;BME280;22607;49.550;11.940;2023-01-16T01:46:27;95669.66;;;0.56;100.00
36598;BME280;22607;49.550;11.940;2023-01-16T01:49:06;95674.41;;;0.50;100.00
36598;BME280;22607;49.550;11.940;2023-01-16T01:51:34;95663.78;;;0.54;100.00
36598;BME280;22607;49.550;11.940;2023-01-16T01:54:14;95654.28;;;0.64;100.00
36598;BME280;22607;49.550;11.940;2023-01-16T01:56:42;95657.00;;;0.52;100.00
36598;BME280;22607;49.550;11.940;2023-01-16T02:02:06;95642.31;;;0.53;100.00
36598;BME280;22607;49.550;11.940;2023-01-16T02:04:37;95637.28;;;0.51;100.00
36598;BME280;22607;49.550;11.940;2023-01-16T02:07:06;95638.25;;;0.50;100.00
36598;BME280;22607;49.550;11.940;2023-01-16T02:09:34;95626.56;;;0.56;100.00
36598;BME280;22607;49.550;11.940;2023-01-16T02:12:01;95626.50;;;0.66;100.00
36598;BME280;22607;49.550;11.940;2023-01-16T02:14:31;95621.66;;;0.53;100.00
36598;BME280;22607;49.550;11.940;2023-01-16T02:17:02;95613.97;;;0.71;100.00
36598;BME280;22607;49.550;11.940;2023-01-16T02:27:53;95585.28;;;0.74;100.00
36598;BME280;22607;49.550;11.940;2023-01-16T02:37:54;95564.47;;;0.76;100.00
36598;BME280;22607;49.550;11.940;2023-01-16T02:40:35;95549.47;;;0.80;100.00
36598;BME280;22607;49.550;11.940;2023-01-16T02:43:24;95550.44;;;0.78;100.00
36598;BME280;22607;49.550;11.940;2023-01-16T02:46:09;95537.94;;;0.74;100.00
36598;BME280;22607;49.550;11.940;2023-01-16T02:53:53;95538.38;;;0.69;100.00
36598;BME280;22607;49.550;11.940;2023-01-16T02:56:26;95533.88;;;0.71;100.00
36598;BME280;22607;49.550;11.940;2023-01-16T02:58:53;95524.75;;;0.67;100.00
36598;BME280;22607;49.550;11.940;2023-01-16T03:01:20;95520.28;;;0.69;100.00
36598;BME280;22607;49.550;11.940;2023-01-16T03:04:34;95513.63;;;0.67;100.00
36598;BME280;22607;49.550;11.940;2023-01-16T03:09:30;95498.25;;;0.37;100.00
36598;BME280;22607;49.550;11.940;2023-01-16T03:17:07;95472.03;;;0.32;100.00
36598;BME280;22607;49.550;11.940;2023-01-16T03:19:42;95469.81;;;0.37;100.00
36598;BME280;22607;49.550;11.940;2023-01-16T03:22:15;95468.72;;;0.39;100.00
36598;BME280;22607;49.550;11.940;2023-01-16T03:29:55;95471.09;;;0.23;100.00
36598;BME280;22607;49.550;11.940;2023-01-16T03:35:01;95450.03;;;0.18;100.00
36598;BME280;22607;49.550;11.940;2023-01-16T03:37:33;95444.88;;;0.18;100.00
36598;BME280;22607;49.550;11.940;2023-01-16T03:40:07;95452.28;;;0.03;100.00
36598;BME280;22607;49.550;11.940;2023-01-16T03:42:40;95446.66;;;0.17;100.00
36598;BME280;22607;49.550;11.940;2023-01-16T03:45:12;95436.34;;;0.17;100.00
36598;BME280;22607;49.550;11.940;2023-01-16T03:47:48;95442.88;;;0.39;100.00
36598;BME280;22607;49.550;11.940;2023-01-16T03:50:17;95429.06;;;0.59;100.00
36598;BME280;22607;49.550;11.940;2023-01-16T03:52:46;95424.66;;;0.69;100.00
36598;BME280;22607;49.550;11.940;2023-01-16T03:55:20;95417.88;;;0.68;100.00
36598;BME280;22607;49.550;11.940;2023-01-16T03:57:50;95413.22;;;0.72;100.00
36598;BME280;22607;49.550;11.940;2023-01-16T04:00:19;95403.75;;;0.62;100.00
36598;BME280;22607;49.550;11.940;2023-01-16T04:02:53;95405.13;;;0.57;100.00
36598;BME280;22607;49.550;11.940;2023-01-16T04:08:19;95394.09;;;0.36;100.00
36598;BME280;22607;49.550;11.940;2023-01-16T04:10:48;95390.94;;;0.43;100.00
36598;BME280;22607;49.550;11.940;2023-01-16T04:13:20;95383.53;;;0.30;100.00
36598;BME280;22607;49.550;11.940;2023-01-16T04:15:50;95376.47;;;0.32;100.00
36598;BME280;22607;49.550;11.940;2023-01-16T04:18:18;95361.25;;;0.29;100.00
36598;BME280;22607;49.550;11.940;2023-01-16T04:20:45;95353.34;;;0.30;100.00
36598;BME280;22607;49.550;11.940;2023-01-16T04:23:13;95350.44;;;0.15;100.00
36598;BME280;22607;49.550;11.940;2023-01-16T04:25:39;95349.09;;;0.11;100.00
36598;BME280;22607;49.550;11.940;2023-01-16T04:28:06;95352.84;;;-0.02;100.00
36598;BME280;22607;49.550;11.940;2023-01-16T04:30:32;95347.47;;;0.10;100.00
36598;BME280;22607;49.550;11.940;2023-01-16T04:33:02;95324.72;;;-0.05;100.00
36598;BME280;22607;49.550;11.940;2023-01-16T04:35:28;95330.09;;;0.12;100.00
36598;BME280;22607;49.550;11.940;2023-01-16T04:37:55;95327.19;;;0.15;100.00
36598;BME280;22607;49.550;11.940;2023-01-16T04:40:22;95322.38;;;0.48;100.00
36598;BME280;22607;49.550;11.940;2023-01-16T04:42:48;95318.75;;;0.41;100.00
36598;BME280;22607;49.550;11.940;2023-01-16T04:45:14;95319.50;;;0.51;100.00
36598;BME280;22607;49.550;11.940;2023-01-16T04:47:44;95309.16;;;0.51;100.00
36598;BME280;22607;49.550;11.940;2023-01-16T04:50:11;95311.16;;;0.39;100.00
36598;BME280;22607;49.550;11.940;2023-01-16T04:52:37;95306.94;;;0.57;100.00
36598;BME280;22607;49.550;11.940;2023-01-16T04:55:04;95307.69;;;0.49;100.00
36598;BME280;22607;49.550;11.940;2023-01-16T04:57:30;95298.69;;;0.53;100.00
36598;BME280;22607;49.550;11.940;2023-01-16T04:59:57;95286.66;;;0.62;100.00
36598;BME280;22607;49.550;11.940;2023-01-16T05:02:23;95289.97;;;0.72;100.00
36598;BME280;22607;49.550;11.940;2023-01-16T05:04:49;95276.47;;;0.78;100.00
36598;BME280;22607;49.550;11.940;2023-01-16T05:07:16;95268.59;;;0.88;100.00
36598;BME280;22607;49.550;11.940;2023-01-16T05:09:42;95265.50;;;0.85;100.00
36598;BME280;22607;49.550;11.940;2023-01-16T05:12:09;95252.97;;;0.72;100.00
36598;BME280;22607;49.550;11.940;2023-01-16T05:14:35;95243.19;;;0.57;100.00
36598;BME280;22607;49.550;11.940;2023-01-16T05:17:01;95244.25;;;0.73;100.00
36598;BME280;22607;49.550;11.940;2023-01-16T05:19:28;95237.44;;;0.45;100.00
36598;BME280;22607;49.550;11.940;2023-01-16T05:21:54;95230.56;;;0.36;100.00
36598;BME280;22607;49.550;11.940;2023-01-16T05:24:23;95232.13;;;0.91;100.00
36598;BME280;22607;49.550;11.940;2023-01-16T05:26:49;95227.75;;;0.47;100.00
36598;BME280;22607;49.550;11.940;2023-01-16T05:29:16;95228.28;;;0.33;100.00
36598;BME280;22607;49.550;11.940;2023-01-16T05:31:42;95229.44;;;0.20;100.00
36598;BME280;22607;49.550;11.940;2023-01-16T05:34:09;95220.53;;;0.33;100.00
36598;BME280;22607;49.550;11.940;2023-01-16T05:36:35;95217.50;;;0.19;100.00
36598;BME280;22607;49.550;11.940;2023-01-16T05:39:02;95213.88;;;0.30;100.00
36598;BME280;22607;49.550;11.940;2023-01-16T05:41:28;95210.47;;;0.30;100.00
36598;BME280;22607;49.550;11.940;2023-01-16T05:43:55;95205.50;;;0.73;100.00
36598;BME280;22607;49.550;11.940;2023-01-16T05:46:21;95205.97;;;0.68;100.00
36598;BME280;22607;49.550;11.940;2023-01-16T05:48:47;95201.28;;;0.45;100.00
36598;BME280;22607;49.550;11.940;2023-01-16T05:51:14;95203.06;;;0.71;100.00
36598;BME280;22607;49.550;11.940;2023-01-16T05:53:41;95200.13;;;0.66;100.00
36598;BME280;22607;49.550;11.940;2023-01-16T05:56:08;95204.09;;;0.60;100.00
36598;BME280;22607;49.550;11.940;2023-01-16T05:58:35;95205.81;;;0.96;100.00
36598;BME280;22607;49.550;11.940;2023-01-16T06:01:01;95192.56;;;0.73;100.00
36598;BME280;22607;49.550;11.940;2023-01-16T06:03:28;95183.47;;;0.87;100.00
36598;BME280;22607;49.550;11.940;2023-01-16T06:05:54;95185.22;;;0.60;100.00
36598;BME280;22607;49.550;11.940;2023-01-16T06:08:20;95179.72;;;0.55;100.00
36598;BME280;22607;49.550;11.940;2023-01-16T06:10:47;95181.03;;;0.59;100.00
36598;BME280;22607;49.550;11.940;2023-01-16T06:13:14;95178.66;;;0.47;100.00
36598;BME280;22607;49.550;11.940;2023-01-16T06:15:41;95173.50;;;0.47;100.00
36598;BME280;22607;49.550;11.940;2023-01-16T06:18:08;95175.66;;;0.52;100.00
36598;BME280;22607;49.550;11.940;2023-01-16T06:20:34;95170.78;;;0.49;100.00
36598;BME280;22607;49.550;11.940;2023-01-16T06:23:00;95174.63;;;0.45;100.00
36598;BME280;22607;49.550;11.940;2023-01-16T06:25:27;95172.53;;;0.48;100.00
36598;BME280;22607;49.550;11.940;2023-01-16T06:27:53;95175.88;;;0.59;100.00
36598;BME280;22607;49.550;11.940;2023-01-16T06:30:21;95168.19;;;0.49;100.00
36598;BME280;22607;49.550;11.940;2023-01-16T06:32:48;95156.88;;;0.50;100.00
36598;BME280;22607;49.550;11.940;2023-01-16T06:35:16;95158.78;;;0.66;100.00
36598;BME280;22607;49.550;11.940;2023-01-16T06:37:42;95153.03;;;0.54;100.00
36598;BME280;22607;49.550;11.940;2023-01-16T06:40:09;95150.41;;;0.46;100.00
36598;BME280;22607;49.550;11.940;2023-01-16T06:42:37;95143.63;;;0.71;100.00
36598;BME280;22607;49.550;11.940;2023-01-16T06:45:03;95131.13;;;0.58;100.00
36598;BME280;22607;49.550;11.940;2023-01-16T06:47:30;95136.72;;;0.54;100.00
36598;BME280;22607;49.550;11.940;2023-01-16T06:49:57;95133.22;;;0.36;100.00
36598;BME280;22607;49.550;11.940;2023-01-16T06:52:23;95131.16;;;0.67;100.00
36598;BME280;22607;49.550;11.940;2023-01-16T06:54:50;95127.69;;;0.49;100.00
36598;BME280;22607;49.550;11.940;2023-01-16T06:57:16;95121.94;;;0.64;100.00
36598;BME280;22607;49.550;11.940;2023-01-16T06:59:42;95115.59;;;0.85;100.00
36598;BME280;22607;49.550;11.940;2023-01-16T07:02:09;95111.28;;;0.94;100.00
36598;BME280;22607;49.550;11.940;2023-01-16T07:04:36;95110.50;;;0.67;100.00
36598;BME280;22607;49.550;11.940;2023-01-16T07:07:03;95109.53;;;0.68;100.00
36598;BME280;22607;49.550;11.940;2023-01-16T07:09:29;95105.19;;;0.76;100.00
36598;BME280;22607;49.550;11.940;2023-01-16T07:11:56;95107.19;;;0.83;100.00
36598;BME280;22607;49.550;11.940;2023-01-16T07:14:22;95101.94;;;0.66;100.00
36598;BME280;22607;49.550;11.940;2023-01-16T07:17:08;95101.88;;;0.58;100.00
36598;BME280;22607;49.550;11.940;2023-01-16T07:19:56;95097.09;;;0.71;100.00
36598;BME280;22607;49.550;11.940;2023-01-16T07:22:41;95096.19;;;0.81;100.00
36598;BME280;22607;49.550;11.940;2023-01-16T07:25:13;95091.47;;;1.11;100.00
36598;BME280;22607;49.550;11.940;2023-01-16T07:27:41;95088.69;;;1.64;100.00
36598;BME280;22607;49.550;11.940;2023-01-16T07:30:09;95082.91;;;2.12;97.87
36598;BME280;22607;49.550;11.940;2023-01-16T07:32:37;95073.16;;;2.39;94.53
36598;BME280;22607;49.550;11.940;2023-01-16T07:35:04;95073.31;;;2.45;90.96
36598;BME280;22607;49.550;11.940;2023-01-16T07:37:31;95059.69;;;2.60;88.96
36598;BME280;22607;49.550;11.940;2023-01-16T07:39:58;95047.25;;;2.95;88.26
36598;BME280;22607;49.550;11.940;2023-01-16T07:42:24;95043.84;;;3.26;84.32
36598;BME280;22607;49.550;11.940;2023-01-16T07:44:50;95030.28;;;3.48;83.85
36598;BME280;22607;49.550;11.940;2023-01-16T07:47:25;95029.66;;;3.69;80.33
36598;BME280;22607;49.550;11.940;2023-01-16T07:49:51;95025.72;;;3.97;79.58
36598;BME280;22607;49.550;11.940;2023-01-16T07:52:17;95013.13;;;4.24;79.77
36598;BME280;22607;49.550;11.940;2023-01-16T07:54:45;95012.25;;;4.31;75.72
36598;BME280;22607;49.550;11.940;2023-01-16T07:57:11;95006.34;;;4.23;76.43
36598;BME280;22607;49.550;11.940;2023-01-16T07:59:38;94986.97;;;4.70;75.70
36598;BME280;22607;49.550;11.940;2023-01-16T08:02:08;94978.53;;;4.68;72.90
36598;BME280;22607;49.550;11.940;2023-01-16T08:04:35;94971.63;;;4.76;72.08
36598;BME280;22607;49.550;11.940;2023-01-16T08:07:02;94962.91;;;4.98;70.39
36598;BME280;22607;49.550;11.940;2023-01-16T08:09:28;94956.03;;;4.60;71.42
36598;BME280;22607;49.550;11.940;2023-01-16T08:11:54;94945.69;;;4.97;70.96
36598;BME280;22607;49.550;11.940;2023-01-16T08:16:50;94940.13;;;5.22;69.25
36598;BME280;22607;49.550;11.940;2023-01-16T08:19:17;94935.03;;;5.14;68.69
36598;BME280;22607;49.550;11.940;2023-01-16T08:21:43;94926.72;;;5.47;68.12
36598;BME280;22607;49.550;11.940;2023-01-16T08:24:10;94911.50;;;6.01;65.65
36598;BME280;22607;49.550;11.940;2023-01-16T08:26:38;94914.00;;;5.88;65.52
36598;BME280;22607;49.550;11.940;2023-01-16T08:29:05;94906.66;;;6.27;63.89
36598;BME280;22607;49.550;11.940;2023-01-16T08:31:31;94897.16;;;6.54;63.21
36598;BME280;22607;49.550;11.940;2023-01-16T08:33:58;94900.00;;;6.66;61.24
36598;BME280;22607;49.550;11.940;2023-01-16T08:36:24;94891.56;;;6.57;60.39
36598;BME280;22607;49.550;11.940;2023-01-16T08:38:52;94887.66;;;7.02;62.16
36598;BME280;22607;49.550;11.940;2023-01-16T08:41:18;94884.34;;;6.60;60.57
36598;BME280;22607;49.550;11.940;2023-01-16T08:44:04;94874.84;;;7.07;60.90
36598;BME280;22607;49.550;11.940;2023-01-16T08:47:23;94865.84;;;6.54;60.27
36598;BME280;22607;49.550;11.940;2023-01-16T08:50:01;94859.53;;;6.84;60.46
36598;BME280;22607;49.550;11.940;2023-01-16T08:52:46;94860.16;;;7.06;59.22
36598;BME280;22607;49.550;11.940;2023-01-16T08:55:12;94854.16;;;6.99;58.93
36598;BME280;22607;49.550;11.940;2023-01-16T08:57:39;94858.72;;;6.83;59.75
36598;BME280;22607;49.550;11.940;2023-01-16T09:00:05;94845.41;;;6.65;59.64
36598;BME280;22607;49.550;11.940;2023-01-16T09:02:46;94838.22;;;6.67;60.63
36598;BME280;22607;49.550;11.940;2023-01-16T09:05:13;94836.25;;;6.20;61.36
36598;BME280;22607;49.550;11.940;2023-01-16T09:07:40;94826.50;;;6.42;61.44
36598;BME280;22607;49.550;11.940;2023-01-16T09:10:07;94818.56;;;6.78;59.71
36598;BME280;22607;49.550;11.940;2023-01-16T09:12:34;94815.97;;;6.71;58.89
36598;BME280;22607;49.550;11.940;2023-01-16T09:15:19;94817.53;;;6.59;59.76
36598;BME280;22607;49.550;11.940;2023-01-16T09:17:45;94818.56;;;6.78;59.85
36598;BME280;22607;49.550;11.940;2023-01-16T09:20:12;94807.75;;;6.88;59.45
36598;BME280;22607;49.550;11.940;2023-01-16T09:22:38;94806.56;;;7.11;58.82
36598;BME280;22607;49.550;11.940;2023-01-16T09:25:05;94796.09;;;6.90;58.81
36598;BME280;22607;49.550;11.940;2023-01-16T09:27:31;94792.50;;;6.98;59.52
36598;BME280;22607;49.550;11.940;2023-01-16T09:29:57;94779.88;;;7.15;58.94
36598;BME280;22607;49.550;11.940;2023-01-16T09:32:27;94777.66;;;7.05;58.17
36598;BME280;22607;49.550;11.940;2023-01-16T09:34:53;94774.03;;;7.00;58.52
36598;BME280;22607;49.550;11.940;2023-01-16T09:37:20;94774.66;;;7.22;58.18
36598;BME280;22607;49.550;11.940;2023-01-16T09:39:46;94763.38;;;7.42;58.69
36598;BME280;22607;49.550;11.940;2023-01-16T09:45:12;94756.31;;;7.49;56.97
36598;BME280;22607;49.550;11.940;2023-01-16T09:47:41;94741.22;;;7.65;57.13
36598;BME280;22607;49.550;11.940;2023-01-16T09:52:44;94739.06;;;8.07;57.43
36598;BME280;22607;49.550;11.940;2023-01-16T09:58:19;94726.75;;;8.14;55.49
36598;BME280;22607;49.550;11.940;2023-01-16T10:01:03;94709.34;;;7.95;55.89
36598;BME280;22607;49.550;11.940;2023-01-16T10:03:39;94709.06;;;8.17;55.98
36598;BME280;22607;49.550;11.940;2023-01-16T10:06:12;94696.81;;;8.10;55.78
36598;BME280;22607;49.550;11.940;2023-01-16T10:11:32;94683.19;;;8.34;54.92
36598;BME280;22607;49.550;11.940;2023-01-16T10:19:21;94672.19;;;8.25;53.77
36598;BME280;22607;49.550;11.940;2023-01-16T10:22:01;94659.13;;;8.25;54.32
36598;BME280;22607;49.550;11.940;2023-01-16T10:24:49;94657.31;;;8.51;53.71
36598;BME280;22607;49.550;11.940;2023-01-16T10:28:03;94663.16;;;8.21;54.29
36598;BME280;22607;49.550;11.940;2023-01-16T10:32:35;94641.25;;;8.54;53.83
36598;BME280;22607;49.550;11.940;2023-01-16T10:37:37;94629.28;;;8.65;54.53
36598;BME280;22607;49.550;11.940;2023-01-16T10:40:13;94611.09;;;8.45;53.07
36598;BME280;22607;49.550;11.940;2023-01-16T10:42:41;94601.16;;;8.28;54.16
36598;BME280;22607;49.550;11.940;2023-01-16T10:45:29;94591.88;;;8.32;55.07
36598;BME280;22607;49.550;11.940;2023-01-16T10:48:15;94584.41;;;8.61;54.62
36598;BME280;22607;49.550;11.940;2023-01-16T10:51:01;94574.53;;;8.63;54.33
36598;BME280;22607;49.550;11.940;2023-01-16T10:53:27;94567.53;;;8.32;55.18
36598;BME280;22607;49.550;11.940;2023-01-16T10:55:55;94561.47;;;8.63;54.06
36598;BME280;22607;49.550;11.940;2023-01-16T10:58:23;94569.47;;;8.69;54.21
36598;BME280;22607;49.550;11.940;2023-01-16T11:00:52;94560.16;;;8.73;53.12
36598;BME280;22607;49.550;11.940;2023-01-16T11:03:25;94557.41;;;8.68;53.63
36598;BME280;22607;49.550;11.940;2023-01-16T11:06:10;94544.91;;;8.88;52.87
36598;BME280;22607;49.550;11.940;2023-01-16T11:08:37;94532.69;;;8.82;53.29
36598;BME280;22607;49.550;11.940;2023-01-16T11:11:04;94530.94;;;8.76;54.70
36598;BME280;22607;49.550;11.940;2023-01-16T11:13:30;94526.13;;;8.54;51.57
36598;BME280;22607;49.550;11.940;2023-01-16T11:16:21;94526.13;;;8.54;52.87
36598;BME280;22607;49.550;11.940;2023-01-16T11:21:44;94524.16;;;8.43;53.59
36598;BME280;22607;49.550;11.940;2023-01-16T11:26:42;94501.28;;;8.82;51.19
36598;BME280;22607;49.550;11.940;2023-01-16T11:29:13;94489.06;;;8.57;51.19
36598;BME280;22607;49.550;11.940;2023-01-16T11:31:41;94485.31;;;8.02;52.98
36598;BME280;22607;49.550;11.940;2023-01-16T11:34:13;94462.16;;;7.80;52.86
36598;BME280;22607;49.550;11.940;2023-01-16T11:36:41;94455.03;;;7.69;53.44
36598;BME280;22607;49.550;11.940;2023-01-16T11:39:14;94449.06;;;7.55;53.40
36598;BME280;22607;49.550;11.940;2023-01-16T11:41:44;94443.00;;;7.35;53.18
36598;BME280;22607;49.550;11.940;2023-01-16T11:44:12;94435.56;;;7.32;52.80
36598;BME280;22607;49.550;11.940;2023-01-16T11:46:58;94428.75;;;7.31;53.03
36598;BME280;22607;49.550;11.940;2023-01-16T11:49:27;94426.84;;;7.13;53.03
36598;BME280;22607;49.550;11.940;2023-01-16T11:51:55;94408.97;;;7.42;52.42
36598;BME280;22607;49.550;11.940;2023-01-16T11:54:30;94411.34;;;7.18;53.22
36598;BME280;22607;49.550;11.940;2023-01-16T12:10:57;94358.69;;;7.54;54.48
36598;BME280;22607;49.550;11.940;2023-01-16T12:13:31;94346.91;;;7.88;52.23
36598;BME280;22607;49.550;11.940;2023-01-16T12:21:32;94311.03;;;7.77;52.15
36598;BME280;22607;49.550;11.940;2023-01-16T12:24:05;94294.63;;;7.88;51.82
36598;BME280;22607;49.550;11.940;2023-01-16T12:26:42;94292.03;;;7.70;52.44
36598;BME280;22607;49.550;11.940;2023-01-16T12:29:15;94278.75;;;7.71;52.18
36598;BME280;22607;49.550;11.940;2023-01-16T12:32:02;94258.03;;;7.51;50.51
36598;BME280;22607;49.550;11.940;2023-01-16T12:39:55;94242.91;;;7.34;50.95
36598;BME280;22607;49.550;11.940;2023-01-16T12:50:59;94192.47;;;7.41;50.22
36598;BME280;22607;49.550;11.940;2023-01-16T12:58:56;94169.53;;;7.43;50.77
36598;BME280;22607;49.550;11.940;2023-01-16T13:01:25;94159.16;;;7.36;50.69
36598;BME280;22607;49.550;11.940;2023-01-16T13:04:06;94164.88;;;7.07;50.34
36598;BME280;22607;49.550;11.940;2023-01-16T13:09:11;94156.25;;;7.26;52.20
36598;BME280;22607;49.550;11.940;2023-01-16T13:12:02;94161.28;;;7.27;51.94
36598;BME280;22607;49.550;11.940;2023-01-16T13:14:49;94162.03;;;7.09;52.21
36598;BME280;22607;49.550;11.940;2023-01-16T13:17:25;94151.91;;;7.19;51.42
36598;BME280;22607;49.550;11.940;2023-01-16T13:19:56;94147.59;;;7.06;50.68
36598;BME280;22607;49.550;11.940;2023-01-16T13:22:26;94156.19;;;7.32;49.76
36598;BME280;22607;49.550;11.940;2023-01-16T13:27:31;94163.22;;;7.13;59.18
36598;BME280;22607;49.550;11.940;2023-01-16T13:30:04;94165.25;;;7.11;58.02
36598;BME280;22607;49.550;11.940;2023-01-16T13:32:37;94165.94;;;7.00;56.88
36598;BME280;22607;49.550;11.940;2023-01-16T13:42:55;94179.25;;;7.17;52.24
36598;BME280;22607;49.550;11.940;2023-01-16T13:45:43;94177.69;;;7.09;52.29
36598;BME280;22607;49.550;11.940;2023-01-16T13:48:17;94165.63;;;7.33;50.30
36598;BME280;22607;49.550;11.940;2023-01-16T13:50:46;94163.88;;;7.27;50.30
36598;BME280;22607;49.550;11.940;2023-01-16T13:53:15;94166.34;;;7.03;51.91
36598;BME280;22607;49.550;11.940;2023-01-16T13:55:41;94159.38;;;7.34;49.86
36598;BME280;22607;49.550;11.940;2023-01-16T13:58:16;94155.31;;;7.20;50.51
36598;BME280;22607;49.550;11.940;2023-01-16T14:00:44;94157.50;;;7.23;50.08
36598;BME280;22607;49.550;11.940;2023-01-16T14:03:18;94161.59;;;6.93;52.05
36598;BME280;22607;49.550;11.940;2023-01-16T14:05:49;94154.75;;;6.74;52.91
36598;BME280;22607;49.550;11.940;2023-01-16T14:11:15;94142.44;;;6.81;54.55
36598;BME280;22607;49.550;11.940;2023-01-16T14:13:48;94148.81;;;6.85;53.10
36598;BME280;22607;49.550;11.940;2023-01-16T14:19:00;94112.00;;;6.75;52.38
36598;BME280;22607;49.550;11.940;2023-01-16T14:24:11;94111.66;;;6.46;54.10
36598;BME280;22607;49.550;11.940;2023-01-16T14:26:44;94113.81;;;6.23;55.85
36598;BME280;22607;49.550;11.940;2023-01-16T14:29:20;94094.56;;;6.50;54.26
36598;BME280;22607;49.550;11.940;2023-01-16T14:34:26;94109.47;;;6.42;55.64
36598;BME280;22607;49.550;11.940;2023-01-16T14:36:53;94125.41;;;6.27;56.62
36598;BME280;22607;49.550;11.940;2023-01-16T14:39:32;94160.38;;;6.13;62.08
36598;BME280;22607;49.550;11.940;2023-01-16T14:42:01;94166.50;;;5.93;59.98
36598;BME280;22607;49.550;11.940;2023-01-16T14:50:58;94151.88;;;5.92;58.81
36598;BME280;22607;49.550;11.940;2023-01-16T14:53:45;94157.88;;;5.54;61.72
36598;BME280;22607;49.550;11.940;2023-01-16T14:56:31;94167.03;;;5.63;61.66
36598;BME280;22607;49.550;11.940;2023-01-16T14:59:16;94185.19;;;5.31;63.12
36598;BME280;22607;49.550;11.940;2023-01-16T15:01:47;94169.75;;;5.29;64.37
36598;BME280;22607;49.550;11.940;2023-01-16T15:07:19;94170.00;;;5.14;65.53
36598;BME280;22607;49.550;11.940;2023-01-16T15:09:47;94169.81;;;5.09;65.99
36598;BME280;22607;49.550;11.940;2023-01-16T15:12:16;94164.41;;;5.04;65.96
36598;BME280;22607;49.550;11.940;2023-01-16T15:14:56;94164.44;;;4.90;66.97
36598;BME280;22607;49.550;11.940;2023-01-16T15:17:37;94161.63;;;4.98;67.74
36598;BME280;22607;49.550;11.940;2023-01-16T15:20:25;94142.59;;;5.05;66.54
36598;BME280;22607;49.550;11.940;2023-01-16T15:30:54;94127.00;;;4.98;68.75
36598;BME280;22607;49.550;11.940;2023-01-16T15:33:29;94140.38;;;5.02;68.26
36598;BME280;22607;49.550;11.940;2023-01-16T15:38:50;94114.44;;;5.41;65.91
36598;BME280;22607;49.550;11.940;2023-01-16T15:41:17;94104.84;;;5.41;65.51
36598;BME280;22607;49.550;11.940;2023-01-16T15:43:45;94104.50;;;5.31;66.27
36598;BME280;22607;49.550;11.940;2023-01-16T15:46:51;94102.66;;;5.31;66.19